Time;durP1;ratioP1;P1;durP2;ratioP2;P2;SDS_P1;SDS_P2;PMS_P1;PMS_P2;Temp;Humidity;BMP_temperature;BMP_pressure;BME280_temperature;BME280_humidity;BME280_pressure;Samples;Min_cycle;Max_cycle;Signal;HPM_P1;HPM_P2
2021/04/24 00:01:37;;;;;;;9.38;6.22;;;8.70;99.90;;;;;;5068470;28;20182;-86
2021/04/24 00:04:03;;;;;;;18.38;6.70;;;8.60;99.90;;;;;;5074365;28;20197;-87
2021/04/24 00:06:30;;;;;;;12.13;6.68;;;8.60;99.90;;;;;;5072559;28;20174;-86
2021/04/24 00:08:57;;;;;;;16.90;6.88;;;8.60;99.90;;;;;;5061721;28;20199;-85
2021/04/24 00:11:24;;;;;;;12.00;7.22;;;8.50;99.90;;;;;;5054484;28;20176;-86
2021/04/24 00:13:51;;;;;;;19.85;7.03;;;8.50;99.90;;;;;;5053964;28;20179;-86
2021/04/24 00:16:17;;;;;;;21.63;8.18;;;8.40;99.90;;;;;;5068227;28;20265;-87
2021/04/24 00:18:43;;;;;;;12.85;7.47;;;8.50;99.90;;;;;;5069973;28;20208;-86
2021/04/24 00:21:09;;;;;;;20.05;7.80;;;8.50;99.90;;;;;;5073094;28;20262;-85
2021/04/24 00:23:34;;;;;;;15.23;7.75;;;8.40;99.90;;;;;;5074650;28;20201;-86
2021/04/24 00:26:01;;;;;;;12.73;7.07;;;8.30;99.90;;;;;;5074082;28;20578;-86
2021/04/24 00:28:27;;;;;;;20.35;7.43;;;8.20;99.90;;;;;;5075055;28;20159;-86
2021/04/24 00:30:52;;;;;;;11.43;7.80;;;8.20;99.90;;;;;;5072831;28;20277;-85
2021/04/24 00:33:18;;;;;;;9.75;7.53;;;8.20;99.90;;;;;;5071207;28;20175;-86
2021/04/24 00:35:44;;;;;;;24.15;7.82;;;8.10;99.90;;;;;;5053345;28;20190;-85
2021/04/24 00:38:10;;;;;;;16.75;8.13;;;8.10;99.90;;;;;;5054440;28;20175;-85
2021/04/24 00:40:36;;;;;;;18.70;8.02;;;8.00;99.90;;;;;;5053978;28;20180;-86
2021/04/24 00:43:03;;;;;;;18.05;8.30;;;8.00;99.90;;;;;;5068106;28;20580;-86
2021/04/24 00:45:29;;;;;;;13.95;7.90;;;8.00;99.90;;;;;;5070004;28;20178;-87
2021/04/24 00:47:57;;;;;;;11.57;7.93;;;8.00;99.90;;;;;;5061008;28;20240;-85
2021/04/24 00:50:34;;;;;;;14.43;8.82;;;8.00;99.90;;;;;;5060123;28;20230;-86
2021/04/24 00:53:00;;;;;;;17.15;8.55;;;8.00;99.90;;;;;;5055015;28;20639;-86
2021/04/24 00:55:26;;;;;;;17.10;8.65;;;8.00;99.90;;;;;;5069504;28;20197;-85
2021/04/24 00:57:53;;;;;;;18.85;8.70;;;7.90;99.90;;;;;;5073403;28;20258;-85
2021/04/24 01:00:23;;;;;;;16.17;8.45;;;7.90;99.90;;;;;;5070760;28;20198;-85
2021/04/24 01:02:50;;;;;;;27.75;9.07;;;7.90;99.90;;;;;;5053948;28;20245;-86
2021/04/24 01:05:20;;;;;;;20.08;8.43;;;8.00;99.90;;;;;;5054803;28;20194;-86
2021/04/24 01:07:47;;;;;;;14.73;8.65;;;8.00;99.90;;;;;;5054514;28;20678;-86
2021/04/24 01:10:14;;;;;;;22.45;9.10;;;7.90;99.90;;;;;;5050393;28;20207;-87
2021/04/24 01:12:41;;;;;;;16.98;8.18;;;8.00;99.90;;;;;;5054360;28;20183;-87
2021/04/24 01:15:08;;;;;;;12.35;8.15;;;8.00;99.90;;;;;;5066927;28;20194;-85
2021/04/24 01:17:34;;;;;;;16.00;9.13;;;7.90;99.90;;;;;;5061008;28;20317;-86
2021/04/24 01:20:00;;;;;;;13.48;8.77;;;7.80;99.90;;;;;;5053540;28;20199;-86
2021/04/24 01:22:26;;;;;;;17.13;8.75;;;7.70;99.90;;;;;;5072088;28;20179;-86
2021/04/24 01:24:52;;;;;;;21.17;8.63;;;7.70;99.90;;;;;;5072871;28;20707;-86
2021/04/24 01:27:18;;;;;;;16.58;8.38;;;7.70;99.90;;;;;;5071075;28;20669;-85
2021/04/24 01:29:44;;;;;;;19.50;8.55;;;7.70;99.90;;;;;;5072816;28;20756;-85
2021/04/24 01:32:10;;;;;;;21.75;8.90;;;7.70;99.90;;;;;;5073036;28;20191;-86
2021/04/24 01:34:36;;;;;;;15.13;9.57;;;7.70;99.90;;;;;;5073398;28;20284;-86
2021/04/24 01:37:02;;;;;;;15.95;9.32;;;7.60;99.90;;;;;;5074088;28;20174;-86
2021/04/24 01:39:30;;;;;;;25.08;9.80;;;7.60;99.90;;;;;;5059879;28;20187;-86
2021/04/24 01:41:57;;;;;;;19.73;9.38;;;7.50;99.90;;;;;;5057608;28;20185;-85
2021/04/24 01:44:23;;;;;;;16.83;9.65;;;7.50;99.90;;;;;;5072970;28;20170;-86
2021/04/24 01:46:49;;;;;;;14.48;9.05;;;7.40;99.90;;;;;;5071257;28;20187;-86
2021/04/24 01:49:15;;;;;;;14.52;8.98;;;7.40;99.90;;;;;;5071458;28;20693;-86
2021/04/24 01:51:41;;;;;;;20.42;10.00;;;7.40;99.90;;;;;;5072925;28;20174;-86
2021/04/24 01:54:07;;;;;;;20.67;9.55;;;7.40;99.90;;;;;;5071555;28;20646;-86
2021/04/24 01:56:44;;;;;;;18.10;9.63;;;7.30;99.90;;;;;;5092732;28;20177;-85
2021/04/24 01:59:10;;;;;;;19.75;9.48;;;7.20;99.90;;;;;;5091451;28;20223;-86
2021/04/24 02:01:35;;;;;;;16.88;8.77;;;7.20;99.90;;;;;;5074596;28;20578;-86
2021/04/24 02:04:01;;;;;;;17.00;8.68;;;7.20;99.90;;;;;;5076954;28;20178;-86
2021/04/24 02:06:27;;;;;;;13.05;9.10;;;7.20;99.90;;;;;;5074540;28;20179;-86
2021/04/24 02:08:52;;;;;;;16.60;9.23;;;7.20;99.90;;;;;;5069525;28;20226;-86
2021/04/24 02:11:18;;;;;;;25.13;9.73;;;7.10;99.90;;;;;;5070496;28;20207;-86
2021/04/24 02:13:44;;;;;;;16.45;9.55;;;7.10;99.90;;;;;;5076719;28;20166;-85
2021/04/24 02:16:12;;;;;;;20.90;9.82;;;7.10;99.90;;;;;;5076778;28;20265;-85
2021/04/24 02:18:38;;;;;;;14.77;8.55;;;7.10;99.90;;;;;;5078269;28;20210;-85
2021/04/24 02:21:04;;;;;;;19.13;9.80;;;7.10;99.90;;;;;;5075066;28;20178;-87
2021/04/24 02:23:37;;;;;;;25.55;10.50;;;7.10;99.90;;;;;;5078603;28;20170;-87
2021/04/24 02:26:04;;;;;;;18.33;9.38;;;7.10;99.90;;;;;;5069477;28;20172;-86
2021/04/24 02:28:30;;;;;;;19.23;9.27;;;7.10;99.90;;;;;;5060940;28;20174;-86
2021/04/24 02:30:56;;;;;;;23.85;9.13;;;7.00;99.90;;;;;;5075876;28;20183;-85
2021/04/24 02:33:22;;;;;;;23.25;9.95;;;7.00;99.90;;;;;;5076315;28;20171;-86
2021/04/24 02:35:57;;;;;;;22.35;9.75;;;7.00;99.90;;;;;;5075066;28;20179;-85
2021/04/24 02:38:25;;;;;;;13.20;8.90;;;6.90;99.90;;;;;;5073834;28;20178;-86
2021/04/24 02:40:53;;;;;;;19.85;9.05;;;6.90;99.90;;;;;;5056185;28;20176;-87
2021/04/24 02:43:19;;;;;;;11.25;8.10;;;6.90;99.90;;;;;;5072562;28;20214;-86
2021/04/24 02:45:45;;;;;;;20.08;9.30;;;6.90;99.90;;;;;;5072721;28;20195;-85
2021/04/24 02:48:12;;;;;;;13.57;9.05;;;6.90;99.90;;;;;;5089101;28;20179;-86
2021/04/24 02:50:38;;;;;;;16.67;9.40;;;6.90;99.90;;;;;;5074774;28;20195;-86
2021/04/24 02:53:04;;;;;;;18.90;9.43;;;6.90;99.90;;;;;;5059176;28;20179;-86
2021/04/24 02:55:30;;;;;;;15.20;8.63;;;6.90;99.90;;;;;;5075993;28;20179;-87
2021/04/24 02:57:56;;;;;;;16.70;9.18;;;6.90;99.90;;;;;;5075895;28;20645;-86
2021/04/24 03:00:22;;;;;;;18.42;8.98;;;7.00;99.90;;;;;;5073839;28;20179;-85
2021/04/24 03:03:08;;;;;;;23.33;10.02;;;6.90;99.90;;;;;;5077083;28;20249;-86
2021/04/24 03:05:34;;;;;;;21.20;9.60;;;6.90;99.90;;;;;;5065124;28;20183;-86
2021/04/24 03:08:01;;;;;;;19.45;9.23;;;7.00;99.90;;;;;;5071522;28;20312;-87
2021/04/24 03:10:27;;;;;;;18.65;9.90;;;7.00;99.90;;;;;;5074049;28;20206;-86
2021/04/24 03:12:53;;;;;;;16.02;8.48;;;6.90;99.90;;;;;;5074577;28;20186;-86
2021/04/24 03:15:19;;;;;;;16.83;9.13;;;6.90;99.90;;;;;;5071585;28;20171;-87
2021/04/24 03:17:45;;;;;;;16.75;9.30;;;6.80;99.90;;;;;;5067770;28;20205;-86
2021/04/24 03:20:13;;;;;;;18.33;10.02;;;6.70;99.90;;;;;;5076283;28;20175;-86
2021/04/24 03:22:39;;;;;;;17.50;9.13;;;6.70;99.90;;;;;;5075556;28;20187;-86
2021/04/24 03:25:07;;;;;;;15.88;9.23;;;6.60;99.90;;;;;;5072263;28;20175;-86
2021/04/24 03:27:33;;;;;;;14.48;9.32;;;6.60;99.90;;;;;;5070093;28;20175;-85
2021/04/24 03:29:58;;;;;;;12.95;8.50;;;6.60;99.90;;;;;;5074601;28;20606;-84
2021/04/24 03:32:24;;;;;;;17.45;9.32;;;6.60;99.90;;;;;;5073281;28;20183;-86
2021/04/24 03:34:50;;;;;;;17.45;8.90;;;6.60;99.90;;;;;;5056239;28;20251;-86
2021/04/24 03:37:15;;;;;;;16.08;9.40;;;6.60;99.90;;;;;;5056376;28;20176;-85
2021/04/24 03:39:41;;;;;;;20.35;8.85;;;6.60;99.90;;;;;;5072515;28;20182;-85
2021/04/24 03:42:07;;;;;;;13.80;8.93;;;6.50;99.90;;;;;;5074337;28;20227;-86
2021/04/24 03:44:32;;;;;;;15.43;9.43;;;6.50;99.90;;;;;;5074727;28;20263;-86
2021/04/24 03:46:58;;;;;;;18.90;9.53;;;6.50;99.90;;;;;;5061735;28;20631;-86
2021/04/24 03:49:24;;;;;;;17.30;8.93;;;6.50;99.90;;;;;;5073387;28;20214;-85
2021/04/24 03:51:49;;;;;;;20.17;9.13;;;6.50;99.90;;;;;;5065281;28;20180;-86
2021/04/24 03:54:15;;;;;;;17.33;9.23;;;6.50;99.90;;;;;;5071846;28;20179;-86
2021/04/24 03:56:41;;;;;;;12.03;8.77;;;6.50;99.90;;;;;;5069740;28;20651;-86
2021/04/24 03:59:06;;;;;;;13.93;8.53;;;6.40;99.90;;;;;;5055547;28;20237;-85
2021/04/24 04:01:32;;;;;;;14.73;8.80;;;6.50;99.90;;;;;;5064580;28;20190;-85
2021/04/24 04:03:58;;;;;;;15.37;9.67;;;6.40;99.90;;;;;;5075463;28;20186;-85
2021/04/24 04:06:23;;;;;;;15.13;9.33;;;6.40;99.90;;;;;;5057479;28;20189;-85
2021/04/24 04:08:49;;;;;;;21.53;10.17;;;6.40;99.90;;;;;;5060450;28;20541;-86
2021/04/24 04:11:15;;;;;;;16.43;8.50;;;6.50;99.90;;;;;;5053933;28;20195;-85
2021/04/24 04:13:40;;;;;;;12.60;8.90;;;6.40;99.90;;;;;;5055909;28;20549;-86
2021/04/24 04:16:06;;;;;;;14.32;9.20;;;6.40;99.90;;;;;;5075353;28;20528;-86
2021/04/24 04:18:35;;;;;;;18.60;8.13;;;6.40;99.90;;;;;;5073994;28;20175;-86
2021/04/24 04:21:01;;;;;;;13.80;8.10;;;6.30;99.90;;;;;;5074795;28;20619;-84
2021/04/24 04:23:26;;;;;;;14.97;9.27;;;6.40;99.90;;;;;;5107824;28;20175;-86
2021/04/24 04:25:53;;;;;;;14.93;8.73;;;6.30;99.90;;;;;;5071535;28;20179;-87
2021/04/24 04:28:20;;;;;;;12.70;8.50;;;6.20;99.90;;;;;;5067027;28;20179;-87
2021/04/24 04:30:46;;;;;;;12.00;7.60;;;6.20;99.90;;;;;;5064694;28;20355;-85
2021/04/24 04:33:12;;;;;;;13.00;9.13;;;6.20;99.90;;;;;;5075215;28;20659;-86
2021/04/24 04:35:39;;;;;;;16.87;8.23;;;6.10;99.90;;;;;;5063614;28;20190;-85
2021/04/24 04:38:05;;;;;;;15.03;8.27;;;6.10;99.90;;;;;;5060884;28;20186;-85
2021/04/24 04:40:31;;;;;;;18.57;8.57;;;6.10;99.90;;;;;;5073540;28;20175;-86
2021/04/24 04:42:57;;;;;;;13.63;8.73;;;6.10;99.90;;;;;;5067927;28;20189;-85
2021/04/24 04:45:24;;;;;;;14.07;8.07;;;6.20;99.90;;;;;;5067037;28;20225;-86
2021/04/24 04:47:50;;;;;;;14.37;8.37;;;6.20;99.90;;;;;;5054299;28;20628;-85
2021/04/24 04:50:19;;;;;;;13.63;8.03;;;6.20;99.90;;;;;;5054758;28;20205;-86
2021/04/24 04:52:45;;;;;;;15.20;7.73;;;6.30;99.90;;;;;;5071391;28;20182;-86
2021/04/24 04:55:12;;;;;;;18.45;7.70;;;6.30;99.90;;;;;;5073753;28;20183;-86
2021/04/24 04:57:37;;;;;;;12.30;7.03;;;6.30;99.90;;;;;;5073274;28;20167;-86
2021/04/24 05:00:15;;;;;;;8.43;7.00;;;6.40;99.90;;;;;;5056275;28;20239;-86
2021/04/24 05:02:42;;;;;;;15.00;6.63;;;6.40;99.90;;;;;;5074775;28;20193;-85
2021/04/24 05:05:08;;;;;;;11.87;7.20;;;6.50;99.90;;;;;;5074611;28;20175;-86
2021/04/24 05:07:34;;;;;;;7.77;6.67;;;6.50;99.90;;;;;;5070012;28;20179;-87
2021/04/24 05:10:00;;;;;;;12.37;7.87;;;6.50;99.90;;;;;;5055864;28;20701;-86
2021/04/24 05:12:25;;;;;;;14.33;6.97;;;6.70;99.90;;;;;;5056668;28;20190;-87
2021/04/24 05:14:51;;;;;;;13.48;7.70;;;6.80;99.90;;;;;;5073487;28;20171;-85
2021/04/24 05:17:17;;;;;;;9.65;7.07;;;6.80;99.90;;;;;;5073046;28;20293;-85
2021/04/24 05:19:42;;;;;;;9.90;6.22;;;6.90;99.90;;;;;;5072306;28;20201;-86
2021/04/24 05:22:09;;;;;;;10.80;6.60;;;7.10;99.90;;;;;;5074966;28;20183;-86
2021/04/24 05:24:34;;;;;;;10.32;6.35;;;7.10;99.90;;;;;;5072336;28;20635;-86
2021/04/24 05:27:00;;;;;;;12.52;6.90;;;7.10;99.90;;;;;;5073413;28;20261;-86
2021/04/24 05:29:26;;;;;;;13.40;6.57;;;7.10;99.90;;;;;;5061990;28;20281;-86
2021/04/24 05:31:52;;;;;;;14.00;6.38;;;7.00;99.90;;;;;;5072485;28;21458;-85
2021/04/24 05:34:17;;;;;;;10.40;6.60;;;7.00;99.90;;;;;;5073777;28;20170;-87
2021/04/24 05:36:43;;;;;;;14.70;7.43;;;7.00;99.90;;;;;;5057856;28;20183;-86
2021/04/24 05:39:09;;;;;;;8.95;6.93;;;7.00;99.90;;;;;;5053674;28;20225;-86
2021/04/24 05:41:36;;;;;;;16.73;7.32;;;7.10;99.90;;;;;;5048604;28;20206;-86
2021/04/24 05:44:03;;;;;;;10.43;6.53;;;7.20;99.90;;;;;;5086315;28;20176;-86
2021/04/24 05:46:29;;;;;;;20.92;6.88;;;7.20;99.90;;;;;;5067780;28;20211;-86
2021/04/24 05:48:55;;;;;;;16.33;7.00;;;7.30;99.90;;;;;;5073184;28;20215;-86
2021/04/24 05:51:22;;;;;;;11.90;7.07;;;7.40;99.90;;;;;;5063223;28;20216;-87
2021/04/24 05:53:52;;;;;;;11.65;7.57;;;7.60;99.90;;;;;;5073780;28;20201;-87
2021/04/24 05:56:18;;;;;;;10.90;6.75;;;7.60;99.90;;;;;;5054402;28;20179;-87
2021/04/24 05:58:44;;;;;;;10.50;7.00;;;7.60;99.90;;;;;;5052909;28;20246;-87
2021/04/24 06:01:10;;;;;;;12.18;7.30;;;7.60;99.90;;;;;;5061645;28;20196;-86
2021/04/24 06:03:36;;;;;;;11.50;7.43;;;7.50;99.90;;;;;;5052716;28;20252;-87
2021/04/24 06:06:02;;;;;;;15.23;7.55;;;7.60;99.90;;;;;;5064805;28;20179;-86
2021/04/24 06:08:27;;;;;;;14.38;7.68;;;7.80;99.90;;;;;;5063332;28;20182;-87
2021/04/24 06:10:53;;;;;;;22.45;7.65;;;7.80;99.90;;;;;;5045592;28;20586;-84
2021/04/24 06:13:19;;;;;;;13.43;7.25;;;8.00;99.90;;;;;;5073252;28;20177;-85
2021/04/24 06:15:45;;;;;;;13.40;6.85;;;8.10;99.90;;;;;;5064109;28;20179;-84
2021/04/24 06:18:10;;;;;;;17.55;7.63;;;8.20;99.90;;;;;;5058653;28;20171;-83
2021/04/24 06:20:36;;;;;;;18.63;7.53;;;8.20;99.90;;;;;;5073416;28;20395;-85
2021/04/24 06:23:03;;;;;;;13.82;7.85;;;8.50;99.90;;;;;;5072508;28;20173;-85
2021/04/24 06:25:28;;;;;;;11.00;7.32;;;8.50;99.90;;;;;;5064801;28;20694;-85
2021/04/24 06:27:55;;;;;;;12.50;6.78;;;8.80;99.90;;;;;;5052032;28;20160;-85
2021/04/24 06:30:22;;;;;;;9.98;6.97;;;8.80;99.90;;;;;;5068058;28;20293;-85
2021/04/24 06:32:50;;;;;;;21.42;7.45;;;9.00;99.90;;;;;;5053408;28;20274;-85
2021/04/24 06:35:16;;;;;;;13.02;7.68;;;9.30;99.90;;;;;;5073638;28;20532;-85
2021/04/24 06:37:42;;;;;;;16.05;6.93;;;9.70;99.90;;;;;;5066832;28;20625;-85
2021/04/24 06:40:11;;;;;;;9.98;6.53;;;10.70;99.90;;;;;;5088867;28;20296;-86
2021/04/24 06:42:37;;;;;;;7.50;6.82;;;12.40;99.90;;;;;;5072416;28;20583;-86
2021/04/24 06:45:05;;;;;;;9.43;6.30;;;13.60;99.90;;;;;;5068174;28;20663;-86
2021/04/24 06:47:31;;;;;;;11.45;6.22;;;14.60;99.90;;;;;;5057136;28;20644;-86
2021/04/24 06:49:57;;;;;;;7.95;5.72;;;15.70;99.90;;;;;;5059138;28;20721;-86
2021/04/24 06:52:23;;;;;;;6.82;5.97;;;15.70;99.90;;;;;;5075861;28;20170;-87
2021/04/24 06:54:48;;;;;;;9.57;5.70;;;16.40;99.90;;;;;;5076732;28;20167;-87
2021/04/24 06:57:14;;;;;;;11.60;5.63;;;16.90;97.90;;;;;;5075342;28;20539;-87
2021/04/24 06:59:40;;;;;;;6.60;5.82;;;16.70;97.80;;;;;;5057472;28;20600;-86
2021/04/24 07:02:08;;;;;;;12.15;6.22;;;16.90;97.10;;;;;;5074569;28;20689;-86
2021/04/24 07:04:33;;;;;;;14.43;6.75;;;16.20;97.10;;;;;;5075734;28;20198;-87
2021/04/24 07:06:59;;;;;;;11.82;6.05;;;16.20;97.20;;;;;;5074505;28;20210;-88
2021/04/24 07:09:25;;;;;;;6.70;5.85;;;18.40;96.30;;;;;;5073710;28;20263;-87
2021/04/24 07:11:50;;;;;;;7.68;5.47;;;20.60;92.30;;;;;;5075303;28;20183;-87
2021/04/24 07:14:16;;;;;;;10.52;6.07;;;20.50;88.10;;;;;;5058830;28;20175;-86
2021/04/24 07:16:42;;;;;;;6.22;5.63;;;19.20;90.80;;;;;;5074793;28;20179;-87
2021/04/24 07:19:07;;;;;;;7.38;5.32;;;19.10;91.10;;;;;;5075258;28;20638;-86
2021/04/24 07:21:33;;;;;;;7.88;5.55;;;20.50;89.60;;;;;;5072902;28;20171;-86
2021/04/24 07:23:59;;;;;;;7.03;5.00;;;20.40;85.00;;;;;;5055058;28;20172;-88
2021/04/24 07:26:25;;;;;;;8.23;5.43;;;18.60;88.60;;;;;;5055525;28;20179;-86
2021/04/24 07:28:50;;;;;;;8.00;4.75;;;17.00;91.00;;;;;;5055738;28;20179;-86
2021/04/24 07:31:16;;;;;;;9.45;5.55;;;17.60;92.10;;;;;;5057101;28;20540;-86
2021/04/24 07:33:42;;;;;;;8.73;5.30;;;19.30;88.80;;;;;;5073755;28;20726;-89
2021/04/24 07:36:09;;;;;;;6.60;5.60;;;19.60;87.70;;;;;;5058426;28;20213;-92
2021/04/24 07:38:35;;;;;;;12.27;5.00;;;20.20;86.00;;;;;;5061539;28;20202;-89
2021/04/24 07:41:00;;;;;;;9.75;4.90;;;21.50;84.50;;;;;;5066572;28;20202;-89
2021/04/24 07:43:26;;;;;;;5.18;4.72;;;23.20;75.80;;;;;;5076282;28;20171;-88
2021/04/24 07:45:52;;;;;;;7.15;4.53;;;20.60;78.80;;;;;;5073902;28;20662;-88
2021/04/24 07:48:18;;;;;;;9.05;4.60;;;19.50;83.70;;;;;;5075039;28;20183;-89
2021/04/24 07:50:45;;;;;;;5.53;4.53;;;19.70;83.20;;;;;;5075911;28;20194;-84
2021/04/24 07:53:11;;;;;;;9.02;4.85;;;20.60;81.70;;;;;;5068880;28;20266;-87
2021/04/24 07:55:36;;;;;;;6.40;4.68;;;18.50;82.20;;;;;;5065357;28;20232;-88
2021/04/24 07:58:02;;;;;;;10.80;5.95;;;16.70;89.20;;;;;;5070102;28;20175;-89
2021/04/24 08:00:28;;;;;;;7.00;5.43;;;17.00;89.10;;;;;;5074166;28;20163;-87
2021/04/24 08:02:54;;;;;;;5.78;5.13;;;16.70;90.10;;;;;;5056197;28;20194;-88
2021/04/24 08:05:20;;;;;;;6.22;5.25;;;17.90;88.90;;;;;;5072824;28;20175;-88
2021/04/24 08:07:46;;;;;;;8.15;5.28;;;17.60;86.60;;;;;;5086505;28;20180;-88
2021/04/24 08:10:12;;;;;;;9.77;6.00;;;16.20;90.20;;;;;;5075204;28;20722;-90
2021/04/24 08:12:38;;;;;;;10.07;5.22;;;15.80;91.00;;;;;;5075409;28;20177;-91
2021/04/24 08:15:06;;;;;;;7.40;5.32;;;17.20;90.30;;;;;;5074192;28;20179;-89
2021/04/24 08:17:32;;;;;;;7.22;5.82;;;17.40;89.20;;;;;;5075643;28;20217;-88
2021/04/24 08:19:58;;;;;;;9.43;5.25;;;17.40;89.10;;;;;;5074282;28;20178;-88
2021/04/24 08:22:24;;;;;;;7.45;5.32;;;17.80;90.20;;;;;;5075402;28;20174;-89
2021/04/24 08:24:49;;;;;;;8.60;5.05;;;18.30;87.30;;;;;;5074756;28;20170;-92
2021/04/24 08:27:15;;;;;;;5.50;4.97;;;17.30;89.80;;;;;;5074432;28;20197;-88
2021/04/24 08:29:41;;;;;;;6.70;5.10;;;17.00;89.40;;;;;;5074203;28;20294;-87
2021/04/24 08:32:08;;;;;;;9.80;5.10;;;19.20;87.30;;;;;;5073849;28;20401;-89
2021/04/24 08:34:34;;;;;;;7.47;5.32;;;20.80;85.90;;;;;;5076015;28;20162;-87
2021/04/24 08:37:00;;;;;;;7.22;5.32;;;21.70;80.50;;;;;;5075250;28;20227;-88
2021/04/24 08:39:25;;;;;;;10.90;5.55;;;21.30;79.70;;;;;;5074969;28;20257;-88
2021/04/24 08:41:51;;;;;;;5.80;5.15;;;20.10;81.60;;;;;;5074966;28;20174;-89
2021/04/24 08:44:17;;;;;;;10.38;5.32;;;18.60;85.70;;;;;;5073717;28;20407;-88
2021/04/24 08:46:51;;;;;;;12.02;5.28;;;19.50;83.60;;;;;;5074814;28;20167;-89
2021/04/24 08:49:19;;;;;;;5.18;4.57;;;20.30;82.40;;;;;;5074422;28;20198;-86
2021/04/24 08:51:45;;;;;;;5.75;4.97;;;23.20;76.80;;;;;;5074036;28;20616;-86
2021/04/24 08:54:11;;;;;;;9.40;4.70;;;25.30;75.60;;;;;;5073042;28;20346;-85
2021/04/24 08:56:37;;;;;;;11.02;4.70;;;26.60;67.10;;;;;;5074124;28;20254;-86
2021/04/24 08:59:03;;;;;;;6.72;4.72;;;24.80;70.60;;;;;;5074172;28;20171;-87
2021/04/24 09:01:29;;;;;;;10.75;4.43;;;24.60;69.60;;;;;;5072558;28;20162;-85
2021/04/24 09:03:54;;;;;;;10.60;4.80;;;24.20;69.30;;;;;;5073590;28;20201;-85
2021/04/24 09:06:21;;;;;;;12.80;5.47;;;24.60;70.90;;;;;;5072758;28;20177;-88
2021/04/24 09:08:58;;;;;;;9.10;3.90;;;26.90;65.80;;;;;;5073100;28;20171;-86
2021/04/24 09:11:24;;;;;;;5.57;3.70;;;27.30;64.60;;;;;;5073041;28;20216;-86
2021/04/24 09:14:08;;;;;;;7.60;4.40;;;27.70;63.20;;;;;;5074100;28;20194;-88
2021/04/24 09:16:34;;;;;;;6.30;3.88;;;25.00;62.70;;;;;;5074302;28;20198;-88
2021/04/24 09:19:01;;;;;;;5.65;4.38;;;25.50;67.10;;;;;;5073538;28;20182;-88
2021/04/24 09:21:30;;;;;;;4.38;3.70;;;26.90;63.20;;;;;;5074088;28;20496;-89
2021/04/24 09:23:56;;;;;;;4.97;3.58;;;24.70;64.80;;;;;;5070146;28;20664;-91
2021/04/24 09:26:24;;;;;;;4.90;4.05;;;25.50;62.60;;;;;;5072447;28;20174;-89
2021/04/24 09:29:01;;;;;;;6.50;4.15;;;22.10;68.20;;;;;;5073535;28;20167;-88
2021/04/24 09:31:28;;;;;;;8.23;3.80;;;23.50;67.30;;;;;;5072274;28;20215;-84
2021/04/24 09:34:00;;;;;;;7.60;4.00;;;24.90;67.60;;;;;;5073661;28;20171;-89
2021/04/24 09:36:38;;;;;;;11.35;3.72;;;21.50;68.10;;;;;;5073628;28;20646;-78
2021/04/24 09:39:09;;;;;;;8.10;3.53;;;22.60;70.70;;;;;;5074132;28;20537;-90
2021/04/24 09:41:37;;;;;;;3.47;2.80;;;22.70;69.10;;;;;;5071632;28;20249;-88
2021/04/24 09:44:05;;;;;;;6.43;3.17;;;22.40;68.00;;;;;;5073705;28;20216;-88
2021/04/24 09:46:45;;;;;;;4.47;3.28;;;24.90;66.00;;;;;;5073609;28;20205;-89
2021/04/24 09:49:29;;;;;;;4.95;2.88;;;26.20;63.70;;;;;;5073183;28;20201;-90
2021/04/24 09:51:57;;;;;;;3.30;2.30;;;25.60;63.50;;;;;;5072069;28;20178;-90
2021/04/24 09:54:37;;;;;;;2.97;2.08;;;23.40;63.10;;;;;;5072231;28;20269;-90
2021/04/24 09:57:04;;;;;;;3.65;2.78;;;22.40;68.10;;;;;;5073949;28;20154;-92
2021/04/24 09:59:30;;;;;;;7.95;3.38;;;22.80;69.80;;;;;;5073572;28;20167;-90
2021/04/24 10:02:06;;;;;;;6.25;3.17;;;24.30;64.80;;;;;;5072238;28;20194;-90
2021/04/24 10:04:32;;;;;;;3.20;2.90;;;23.40;66.70;;;;;;5073913;28;20332;-90
2021/04/24 10:06:58;;;;;;;4.88;3.30;;;23.10;66.30;;;;;;5072853;28;20175;-94
2021/04/24 10:09:31;;;;;;;5.72;3.22;;;24.80;67.70;;;;;;5074280;28;20247;-91
2021/04/24 10:12:00;;;;;;;5.45;3.25;;;24.60;65.60;;;;;;5073760;28;20197;-87
2021/04/24 10:14:48;;;;;;;4.13;3.30;;;25.30;65.00;;;;;;5072795;28;20214;-87
2021/04/24 10:17:19;;;;;;;4.82;3.60;;;25.80;67.20;;;;;;5073773;28;20230;-92
2021/04/24 10:19:47;;;;;;;4.13;3.60;;;24.90;64.80;;;;;;5068574;28;20248;-91
2021/04/24 10:22:14;;;;;;;8.40;3.65;;;22.20;67.90;;;;;;5077461;28;20186;-92
2021/04/24 10:24:41;;;;;;;3.88;3.53;;;21.80;69.60;;;;;;5075980;28;20193;-86
2021/04/24 10:27:09;;;;;;;8.00;3.67;;;22.90;69.60;;;;;;5076307;28;20163;-84
2021/04/24 10:29:35;;;;;;;6.00;3.45;;;23.00;68.00;;;;;;5075236;28;20674;-82
2021/04/24 10:32:01;;;;;;;10.55;3.92;;;22.50;69.40;;;;;;5076129;28;20186;-85
2021/04/24 10:34:27;;;;;;;3.70;3.40;;;23.90;67.60;;;;;;5075855;28;20171;-85
2021/04/24 10:36:53;;;;;;;4.55;3.10;;;23.90;66.80;;;;;;5054774;28;20182;-82
2021/04/24 10:39:31;;;;;;;5.22;3.45;;;24.60;67.70;;;;;;5056219;28;20163;-84
2021/04/24 10:42:02;;;;;;;4.18;3.10;;;24.20;69.00;;;;;;5074997;28;20167;-83
2021/04/24 10:45:07;;;;;;;5.03;3.25;;;26.00;65.60;;;;;;5075785;28;20514;-82
2021/04/24 10:50:10;;;;;;;5.55;4.25;;;22.40;68.20;;;;;;5063506;28;20646;-81
2021/04/24 10:52:35;;;;;;;10.23;4.30;;;22.60;71.60;;;;;;5074526;28;20182;-83
2021/04/24 10:55:16;;;;;;;5.50;4.15;;;23.60;68.70;;;;;;5076116;28;20183;-83
2021/04/24 10:57:43;;;;;;;6.43;4.35;;;21.20;74.40;;;;;;5075743;28;20190;-82
2021/04/24 11:00:15;;;;;;;16.88;4.80;;;22.40;72.50;;;;;;5074387;28;20171;-83
2021/04/24 11:02:52;;;;;;;7.65;4.45;;;25.00;68.80;;;;;;5075806;28;20687;-81
2021/04/24 11:05:33;;;;;;;5.07;4.22;;;21.70;70.10;;;;;;5076472;28;20166;-82
2021/04/24 11:08:08;;;;;;;6.72;3.88;;;21.50;72.70;;;;;;5075749;28;20608;-82
2021/04/24 11:11:01;;;;;;;8.38;4.63;;;21.60;73.50;;;;;;5074411;28;20221;-83
2021/04/24 11:13:30;;;;;;;9.18;4.47;;;22.20;70.40;;;;;;5075815;28;20170;-82
2021/04/24 11:15:56;;;;;;;6.32;4.35;;;23.90;70.00;;;;;;5075868;28;20170;-82
2021/04/24 11:18:23;;;;;;;5.22;4.13;;;24.80;67.10;;;;;;5075723;28;20193;-84
2021/04/24 11:20:54;;;;;;;8.43;4.45;;;24.30;65.80;;;;;;5076231;28;20182;-82
2021/04/24 11:23:35;;;;;;;8.35;4.28;;;22.50;70.50;;;;;;5071603;28;20187;-86
2021/04/24 11:26:03;;;;;;;5.38;4.32;;;22.40;70.00;;;;;;5074047;28;20171;-85
2021/04/24 11:28:29;;;;;;;5.07;4.53;;;22.00;72.60;;;;;;5076061;28;20232;-86
2021/04/24 11:30:59;;;;;;;8.70;5.38;;;23.40;71.20;;;;;;5074250;28;20199;-87
2021/04/24 11:33:45;;;;;;;8.95;5.50;;;24.60;68.30;;;;;;5075134;28;20228;-87
2021/04/24 11:36:26;;;;;;;10.25;6.35;;;23.00;70.00;;;;;;5075762;28;20174;-87
2021/04/24 11:38:57;;;;;;;10.63;6.10;;;23.50;71.50;;;;;;5075135;28;20524;-89
2021/04/24 11:41:42;;;;;;;7.88;5.53;;;25.90;66.70;;;;;;5074469;28;20631;-88
2021/04/24 11:44:24;;;;;;;5.50;5.05;;;25.80;64.90;;;;;;5076154;28;20174;-87
2021/04/24 11:46:54;;;;;;;6.88;5.85;;;24.60;66.30;;;;;;5075542;28;20167;-87
2021/04/24 11:49:22;;;;;;;6.78;5.55;;;24.70;70.20;;;;;;5075667;28;20236;-88
2021/04/24 11:51:51;;;;;;;6.38;5.78;;;26.80;66.00;;;;;;5088553;28;20180;-87
2021/04/24 11:54:39;;;;;;;9.02;5.43;;;26.20;66.90;;;;;;5093497;28;20162;-88
2021/04/24 11:57:04;;;;;;;8.75;6.20;;;24.70;66.60;;;;;;5094354;28;20166;-87
2021/04/24 11:59:33;;;;;;;6.63;5.70;;;23.90;69.50;;;;;;5077003;28;20174;-88
2021/04/24 12:02:03;;;;;;;9.13;5.57;;;22.40;69.60;;;;;;5075610;28;20179;-89
2021/04/24 12:04:36;;;;;;;9.88;5.45;;;21.50;72.10;;;;;;5075804;28;20197;-87
2021/04/24 12:07:11;;;;;;;7.85;6.15;;;20.70;73.40;;;;;;5075079;28;20175;-88
2021/04/24 12:09:52;;;;;;;6.60;5.90;;;20.30;75.90;;;;;;5074912;28;20193;-86
2021/04/24 12:12:48;;;;;;;6.93;6.22;;;18.70;77.80;;;;;;5073776;28;20184;-86
2021/04/24 12:15:15;;;;;;;8.57;5.78;;;21.00;77.00;;;;;;5074335;28;20623;-86
2021/04/24 12:18:07;;;;;;;8.30;6.00;;;22.40;71.40;;;;;;5075062;28;20183;-87
2021/04/24 12:20:34;;;;;;;7.93;6.40;;;22.00;73.60;;;;;;5073426;28;20631;-88
2021/04/24 12:23:05;;;;;;;6.18;5.68;;;22.20;73.50;;;;;;5075306;28;20189;-88
2021/04/24 12:25:33;;;;;;;6.72;6.00;;;23.40;69.70;;;;;;5075181;28;20162;-88
2021/04/24 12:28:02;;;;;;;10.93;6.05;;;22.80;72.20;;;;;;5073960;28;20166;-90
2021/04/24 12:30:39;;;;;;;10.18;6.45;;;20.90;75.60;;;;;;5073546;28;20198;-88
2021/04/24 12:33:04;;;;;;;11.10;6.15;;;19.30;76.60;;;;;;5073561;28;20273;-85
2021/04/24 12:35:33;;;;;;;7.63;6.72;;;18.80;80.80;;;;;;5073390;28;20646;-84
2021/04/24 12:38:20;;;;;;;8.05;6.03;;;17.90;80.90;;;;;;5072995;28;20177;-84
2021/04/24 12:40:57;;;;;;;12.30;5.47;;;17.40;83.40;;;;;;5072433;28;20189;-84
2021/04/24 12:43:28;;;;;;;9.20;6.18;;;17.80;86.20;;;;;;5073185;28;20188;-86
2021/04/24 12:45:59;;;;;;;10.38;6.03;;;17.80;83.70;;;;;;5068808;28;20205;-80
2021/04/24 12:48:32;;;;;;;10.15;6.85;;;17.80;82.90;;;;;;5073791;28;20178;-79
2021/04/24 12:50:58;;;;;;;10.98;6.60;;;17.10;84.60;;;;;;5072302;28;20512;-80
2021/04/24 12:53:53;;;;;;;10.40;6.57;;;16.70;86.60;;;;;;5071341;28;20182;-80